createdAt,value
2019-04-30T00:02:16.076Z,94.52
2019-04-30T00:04:47.239Z,93.03
2019-04-30T00:07:18.994Z,96.23
2019-04-30T00:09:49.216Z,90.53
2019-04-30T00:12:17.635Z,89.13
2019-04-30T00:14:47.112Z,89.92
2019-04-30T00:17:19.582Z,89.03
2019-04-30T00:19:50.489Z,86.37
2019-04-30T00:22:16.969Z,91.32
2019-04-30T00:24:49.719Z,98.72
2019-04-30T00:27:16.722Z,97.08
2019-04-30T00:29:50.302Z,90.77
2019-04-30T00:34:48.369Z,93.25
2019-04-30T00:37:18.902Z,91.90
2019-04-30T00:39:50.890Z,94.77
2019-04-30T00:42:23.908Z,95.40
2019-04-30T00:44:48.912Z,95.45
2019-04-30T00:47:17.611Z,93.87
2019-04-30T00:49:47.223Z,89.42
2019-04-30T00:52:15.951Z,93.78
2019-04-30T00:54:45.347Z,93.25
2019-04-30T00:57:15.161Z,93.27
2019-04-30T00:59:47.787Z,93.10
2019-04-30T01:02:32.088Z,91.78
2019-04-30T01:05:05.248Z,89.05
2019-04-30T01:07:30.297Z,91.60
2019-04-30T01:10:19.568Z,88.65
2019-04-30T01:12:50.206Z,93.90
2019-04-30T01:15:21.488Z,95.10
2019-04-30T01:17:53.777Z,88.53
2019-04-30T01:20:24.068Z,91.15
2019-04-30T01:22:52.619Z,91.75
2019-04-30T01:25:21.307Z,97.72
2019-04-30T01:27:51.975Z,95.42
2019-04-30T01:30:22.554Z,100.60
2019-04-30T01:32:56.578Z,101.60
2019-04-30T01:35:23.788Z,95.20
2019-04-30T01:37:52.534Z,100.75
2019-04-30T01:40:21.609Z,97.45
2019-04-30T01:42:51.852Z,93.75
2019-04-30T01:45:23.070Z,92.80
2019-04-30T01:47:51.489Z,88.20
2019-04-30T01:50:20.432Z,98.62
2019-04-30T01:52:55.244Z,94.85
2019-04-30T01:55:32.301Z,95.32
2019-04-30T01:58:13.372Z,94.52
2019-04-30T02:00:49.439Z,88.72
2019-04-30T02:03:19.351Z,87.55
2019-04-30T02:05:49.903Z,87.62
2019-04-30T02:08:19.568Z,84.60
2019-04-30T02:10:49.138Z,88.50
2019-04-30T02:13:18.968Z,88.20
2019-04-30T02:15:49.235Z,84.97
2019-04-30T02:18:19.529Z,86.90
2019-04-30T02:20:49.651Z,87.30
2019-04-30T02:23:19.555Z,88.65
2019-04-30T02:25:49.104Z,84.95
2019-04-30T02:28:19.026Z,86.90
2019-04-30T02:30:50.377Z,88.10
2019-04-30T02:33:19.817Z,87.67
2019-04-30T02:36:10.292Z,89.20
2019-04-30T02:38:42.659Z,88.50
2019-04-30T02:41:12.290Z,92.45
2019-04-30T02:43:42.633Z,83.78
2019-04-30T02:46:13.467Z,92.53
2019-04-30T02:48:44.530Z,86.75
2019-04-30T02:51:15.188Z,88.97
2019-04-30T02:54:42.408Z,94.00
2019-04-30T02:57:14.466Z,92.05
2019-04-30T03:00:01.560Z,93.87
2019-04-30T03:02:32.060Z,88.72
2019-04-30T03:05:00.781Z,89.62
2019-04-30T03:07:29.735Z,93.78
2019-04-30T03:09:59.804Z,93.97
2019-04-30T03:12:30.567Z,96.53
2019-04-30T03:15:00.469Z,96.57
2019-04-30T03:17:43.041Z,88.90
2019-04-30T03:20:35.613Z,92.30
2019-04-30T03:23:02.457Z,94.28
2019-04-30T03:25:30.784Z,98.05
2019-04-30T03:28:00.352Z,97.17
2019-04-30T03:30:31.898Z,94.22
2019-04-30T03:33:02.808Z,102.40
2019-04-30T03:35:32.591Z,101.35
2019-04-30T03:38:02.041Z,106.95
2019-04-30T03:40:30.979Z,103.70
2019-04-30T03:43:03.156Z,97.40
2019-04-30T03:45:30.503Z,95.28
2019-04-30T03:48:00.147Z,97.62
2019-04-30T03:50:48.123Z,101.50
2019-04-30T03:53:00.626Z,101.70
2019-04-30T03:55:30.030Z,97.15
2019-04-30T03:58:00.080Z,98.72
2019-04-30T04:00:42.167Z,98.12
2019-04-30T04:03:10.160Z,97.17
2019-04-30T04:05:43.980Z,93.25
2019-04-30T04:08:25.308Z,101.15
2019-04-30T04:11:04.300Z,96.92
2019-04-30T04:13:33.267Z,102.70
2019-04-30T04:16:02.090Z,108.55
2019-04-30T04:18:30.769Z,110.60
2019-04-30T04:21:08.896Z,97.20
2019-04-30T04:23:33.180Z,117.97
2019-04-30T04:26:02.101Z,117.17
2019-04-30T04:28:30.787Z,99.87
2019-04-30T04:31:00.090Z,104.83
2019-04-30T04:33:29.678Z,109.87
2019-04-30T04:35:59.767Z,102.22
2019-04-30T04:38:30.367Z,104.07
2019-04-30T04:41:02.648Z,101.40
2019-04-30T04:43:30.107Z,99.00
2019-04-30T04:45:59.522Z,96.90
2019-04-30T04:48:29.800Z,100.25
2019-04-30T04:51:00.124Z,94.47
2019-04-30T04:53:30.404Z,95.30
2019-04-30T04:55:59.987Z,90.70
2019-04-30T04:58:30.305Z,98.15
2019-04-30T05:00:59.357Z,86.65
2019-04-30T05:03:33.989Z,91.85
2019-04-30T05:06:02.989Z,86.87
2019-04-30T05:08:31.915Z,90.28
2019-04-30T05:11:00.919Z,81.42
2019-04-30T05:13:29.674Z,87.27
2019-04-30T05:15:59.419Z,97.45
2019-04-30T05:18:29.131Z,91.02
2019-04-30T05:20:59.034Z,91.22
2019-04-30T05:23:29.804Z,89.92
2019-04-30T05:26:01.160Z,79.47
2019-04-30T05:28:30.337Z,79.05
2019-04-30T05:30:59.447Z,74.87
2019-04-30T05:33:28.618Z,77.37
2019-04-30T05:35:59.275Z,79.25
2019-04-30T05:38:28.694Z,76.80
2019-04-30T05:40:59.656Z,79.85
2019-04-30T05:43:29.073Z,76.17
2019-04-30T05:45:58.669Z,84.40
2019-04-30T05:48:28.651Z,80.17
2019-04-30T05:50:59.143Z,74.05
2019-04-30T05:53:28.689Z,67.35
2019-04-30T05:55:59.336Z,74.72
2019-04-30T05:58:30.022Z,69.62
2019-04-30T06:00:59.703Z,72.08
2019-04-30T06:03:33.020Z,71.12
2019-04-30T06:05:59.584Z,69.82
2019-04-30T06:08:34.007Z,73.67
2019-04-30T06:11:12.931Z,72.82
2019-04-30T06:14:19.003Z,68.83
2019-04-30T06:17:04.836Z,64.15
2019-04-30T06:19:33.709Z,65.65
2019-04-30T06:22:07.430Z,64.80
2019-04-30T06:24:33.087Z,64.20
2019-04-30T06:27:02.978Z,66.55
2019-04-30T06:29:32.047Z,68.00
2019-04-30T06:32:01.053Z,64.03
2019-04-30T06:34:30.653Z,64.58
2019-04-30T06:36:59.663Z,68.33
2019-04-30T06:39:28.862Z,63.00
2019-04-30T06:42:06.423Z,61.45
2019-04-30T06:44:37.321Z,59.03
2019-04-30T06:47:03.185Z,64.47
2019-04-30T06:49:33.498Z,60.88
2019-04-30T06:52:02.510Z,60.12
2019-04-30T06:54:31.268Z,62.70
2019-04-30T06:56:59.955Z,62.75
2019-04-30T06:59:29.952Z,57.80
2019-04-30T07:01:59.086Z,58.68
2019-04-30T07:04:29.294Z,57.85
2019-04-30T07:06:59.001Z,60.17
2019-04-30T07:09:48.949Z,60.43
2019-04-30T07:12:27.313Z,64.60
2019-04-30T07:14:50.753Z,61.40
2019-04-30T07:17:19.686Z,57.98
2019-04-30T07:19:54.150Z,62.98
2019-04-30T07:22:29.061Z,71.80
2019-04-30T07:24:50.232Z,60.63
2019-04-30T07:27:23.782Z,61.90
2019-04-30T07:29:49.601Z,58.38
2019-04-30T07:32:19.734Z,51.00
2019-04-30T07:34:49.624Z,55.92
2019-04-30T07:37:24.231Z,47.35
2019-04-30T07:39:49.967Z,48.15
2019-04-30T07:42:19.346Z,45.60
2019-04-30T07:44:50.204Z,44.85
2019-04-30T07:47:19.431Z,46.73
2019-04-30T07:49:52.916Z,49.05
2019-04-30T07:52:21.527Z,48.98
2019-04-30T07:54:51.942Z,42.78
2019-04-30T07:57:19.693Z,45.88
2019-04-30T07:59:49.954Z,50.78
2019-04-30T08:02:20.835Z,48.78
2019-04-30T08:05:01.975Z,45.75
2019-04-30T08:07:31.068Z,47.85
2019-04-30T08:09:59.775Z,43.78
2019-04-30T08:12:32.080Z,42.23
2019-04-30T08:14:59.553Z,46.60
2019-04-30T08:17:28.999Z,42.75
2019-04-30T08:19:58.748Z,43.23
2019-04-30T08:22:29.648Z,41.83
2019-04-30T08:24:58.818Z,40.92
2019-04-30T08:27:29.461Z,48.17
2019-04-30T08:29:59.186Z,46.68
2019-04-30T08:32:29.011Z,46.90
2019-04-30T08:35:00.991Z,49.10
2019-04-30T08:37:29.013Z,50.70
2019-04-30T08:40:00.219Z,45.83
2019-04-30T08:42:34.016Z,51.77
2019-04-30T08:45:00.192Z,48.23
2019-04-30T08:47:29.487Z,48.38
2019-04-30T08:49:59.529Z,46.80
2019-04-30T08:52:30.505Z,46.98
2019-04-30T08:55:13.340Z,46.02
2019-04-30T08:57:31.786Z,45.03
2019-04-30T09:00:00.499Z,46.37
2019-04-30T09:02:29.247Z,47.10
2019-04-30T09:05:01.402Z,50.45
2019-04-30T09:07:32.719Z,47.40
2019-04-30T09:10:04.641Z,38.70
2019-04-30T09:12:32.221Z,42.33
2019-04-30T09:15:00.911Z,50.03
2019-04-30T09:17:29.969Z,44.60
2019-04-30T09:19:59.050Z,48.50
2019-04-30T09:22:29.335Z,54.15
2019-04-30T09:24:59.220Z,50.63
2019-04-30T09:27:29.610Z,44.30
2019-04-30T09:29:58.846Z,43.48
2019-04-30T09:32:29.176Z,46.92
2019-04-30T09:34:58.735Z,45.67
2019-04-30T09:37:27.983Z,43.92
2019-04-30T09:39:56.680Z,46.50
2019-04-30T09:42:25.995Z,46.50
2019-04-30T09:44:57.158Z,46.65
2019-04-30T09:47:25.466Z,35.13
2019-04-30T09:49:54.246Z,47.03
2019-04-30T09:52:23.061Z,48.92
2019-04-30T09:54:52.057Z,48.25
2019-04-30T09:57:21.254Z,44.40
2019-04-30T09:59:49.998Z,47.60
2019-04-30T10:02:19.293Z,44.15
2019-04-30T10:04:48.553Z,44.15
2019-04-30T10:07:19.372Z,43.83
2019-04-30T10:09:50.681Z,44.10
2019-04-30T10:12:19.521Z,46.13
2019-04-30T10:14:49.450Z,40.08
2019-04-30T10:17:37.368Z,44.95
2019-04-30T10:20:09.768Z,45.90
2019-04-30T10:22:40.121Z,42.70
2019-04-30T10:25:10.281Z,39.58
2019-04-30T10:27:39.143Z,43.90
2019-04-30T10:30:09.463Z,47.25
2019-04-30T10:32:38.390Z,47.50
2019-04-30T10:35:08.878Z,39.92
2019-04-30T10:37:38.722Z,44.55
2019-04-30T10:40:10.123Z,38.48
2019-04-30T10:42:39.223Z,42.13
2019-04-30T10:45:28.989Z,40.92
2019-04-30T10:47:59.242Z,43.40
2019-04-30T10:50:28.101Z,44.63
2019-04-30T10:52:59.001Z,42.83
2019-04-30T10:55:28.706Z,44.60
2019-04-30T10:57:59.323Z,38.98
2019-04-30T11:00:39.095Z,43.45
2019-04-30T11:03:19.061Z,41.20
2019-04-30T11:05:41.263Z,44.80
2019-04-30T11:08:10.268Z,38.58
2019-04-30T11:10:39.919Z,41.40
2019-04-30T11:13:08.862Z,42.98
2019-04-30T11:15:39.436Z,37.15
2019-04-30T11:18:08.922Z,30.85
2019-04-30T11:20:39.711Z,35.03
2019-04-30T11:23:14.613Z,44.00
2019-04-30T11:25:41.217Z,31.33
2019-04-30T11:28:10.322Z,28.40
2019-04-30T11:30:40.671Z,24.35
2019-04-30T11:33:09.716Z,30.37
2019-04-30T11:35:39.445Z,29.35
2019-04-30T11:38:08.215Z,32.15
2019-04-30T11:40:39.831Z,31.30
2019-04-30T11:43:07.667Z,30.45
2019-04-30T11:46:05.974Z,32.35
2019-04-30T11:48:35.015Z,33.02
2019-04-30T11:51:03.814Z,30.50
2019-04-30T11:53:32.571Z,29.30
2019-04-30T11:56:01.254Z,28.30
2019-04-30T11:58:30.560Z,29.77
2019-04-30T12:01:00.175Z,28.50
2019-04-30T12:03:30.381Z,29.35
2019-04-30T12:05:59.211Z,28.47
2019-04-30T12:08:31.641Z,29.65
2019-04-30T12:11:15.269Z,30.55
2019-04-30T12:13:43.468Z,28.83
2019-04-30T12:16:12.154Z,28.38
2019-04-30T12:18:40.844Z,29.75
2019-04-30T12:21:09.890Z,31.12
2019-04-30T12:23:38.823Z,24.20
2019-04-30T12:26:09.227Z,25.43
2019-04-30T12:28:38.038Z,22.22
2019-04-30T12:31:06.875Z,25.95
2019-04-30T12:33:35.646Z,23.02
2019-04-30T12:36:06.381Z,25.55
2019-04-30T12:38:35.647Z,26.20
2019-04-30T12:41:04.482Z,23.45
2019-04-30T12:43:33.530Z,26.35
2019-04-30T12:46:05.581Z,26.40
2019-04-30T12:48:55.893Z,22.98
2019-04-30T12:51:45.060Z,25.10
2019-04-30T12:54:12.516Z,23.22
2019-04-30T12:57:00.266Z,21.48
2019-04-30T12:59:29.541Z,20.02
2019-04-30T13:01:59.361Z,22.05
2019-04-30T13:04:29.354Z,23.65
2019-04-30T13:07:01.590Z,24.95
2019-04-30T13:09:30.298Z,23.40
2019-04-30T13:12:00.583Z,23.57
2019-04-30T13:14:31.117Z,25.02
2019-04-30T13:17:00.133Z,26.10
2019-04-30T13:19:28.918Z,23.35
2019-04-30T13:21:58.704Z,22.40
2019-04-30T13:24:49.772Z,20.85
2019-04-30T13:27:22.299Z,23.63
2019-04-30T13:30:24.428Z,23.42
2019-04-30T13:33:03.706Z,21.02
2019-04-30T13:35:32.499Z,25.27
2019-04-30T13:38:08.396Z,20.77
2019-04-30T13:40:43.475Z,24.05
2019-04-30T13:43:12.837Z,21.68
2019-04-30T13:45:41.937Z,24.63
2019-04-30T13:48:10.641Z,26.80
2019-04-30T13:50:39.627Z,24.40
2019-04-30T13:53:09.017Z,24.47
2019-04-30T13:55:45.648Z,25.75
2019-04-30T13:58:08.746Z,24.72
2019-04-30T14:00:39.758Z,25.02
2019-04-30T14:03:19.992Z,26.67
2019-04-30T14:05:51.606Z,24.70
2019-04-30T14:08:31.527Z,23.93
2019-04-30T14:11:00.941Z,24.52
2019-04-30T14:13:29.802Z,22.45
2019-04-30T14:15:58.734Z,19.98
2019-04-30T14:18:33.650Z,25.37
2019-04-30T14:21:00.762Z,23.17
2019-04-30T14:23:29.192Z,24.00
2019-04-30T14:26:01.204Z,22.32
2019-04-30T14:28:29.937Z,22.50
2019-04-30T14:30:58.928Z,21.80
2019-04-30T14:33:29.390Z,23.90
2019-04-30T14:36:00.553Z,22.30
2019-04-30T14:38:29.035Z,21.93
2019-04-30T14:41:00.596Z,23.70
2019-04-30T14:43:46.818Z,23.33
2019-04-30T14:46:40.892Z,20.77
2019-04-30T14:49:28.870Z,23.18
2019-04-30T14:51:59.532Z,26.55
2019-04-30T14:54:39.179Z,25.75
2019-04-30T14:57:15.374Z,21.15
2019-04-30T15:00:05.781Z,22.98
2019-04-30T15:02:38.090Z,26.37
2019-04-30T15:05:08.994Z,23.42
2019-04-30T15:07:39.664Z,20.23
2019-04-30T15:10:08.918Z,24.67
2019-04-30T15:12:37.938Z,25.35
2019-04-30T15:15:06.804Z,26.00
2019-04-30T15:17:35.895Z,20.85
2019-04-30T15:20:05.138Z,23.57
2019-04-30T15:22:36.418Z,22.95
2019-04-30T15:25:05.946Z,21.60
2019-04-30T15:27:34.938Z,21.45
2019-04-30T15:30:04.112Z,23.90
2019-04-30T15:32:33.849Z,23.62
2019-04-30T15:35:03.147Z,23.00
2019-04-30T15:37:32.143Z,20.48
2019-04-30T15:40:00.851Z,23.65
2019-04-30T15:42:29.922Z,23.22
2019-04-30T15:44:59.585Z,23.35
2019-04-30T15:47:28.866Z,22.32
2019-04-30T15:50:01.843Z,23.35
2019-04-30T15:52:28.830Z,23.60
2019-04-30T15:54:59.211Z,26.55
2019-04-30T15:57:29.548Z,25.10
2019-04-30T15:59:59.115Z,23.05
2019-04-30T16:02:57.073Z,22.98
2019-04-30T16:05:31.009Z,20.88
2019-04-30T16:08:12.992Z,24.32
2019-04-30T16:11:00.134Z,21.05
2019-04-30T16:13:31.683Z,23.65
2019-04-30T16:16:00.378Z,23.18
2019-04-30T16:18:51.307Z,25.23
2019-04-30T16:21:20.155Z,24.30
2019-04-30T16:23:49.322Z,25.90
2019-04-30T16:26:18.435Z,24.47
2019-04-30T16:28:49.508Z,25.68
2019-04-30T16:31:18.918Z,24.65
2019-04-30T16:33:49.404Z,23.77
2019-04-30T16:36:19.340Z,25.62
2019-04-30T16:38:48.767Z,27.73
2019-04-30T16:41:30.743Z,26.00
2019-04-30T16:43:49.345Z,26.97
2019-04-30T16:46:18.447Z,27.80
2019-04-30T16:48:49.304Z,28.42
2019-04-30T16:51:20.252Z,25.60
2019-04-30T16:53:49.239Z,27.80
2019-04-30T16:56:18.727Z,27.87
2019-04-30T16:59:00.132Z,25.02
2019-04-30T17:01:29.776Z,24.82
2019-04-30T17:04:05.918Z,25.48
2019-04-30T17:06:44.692Z,25.60
2019-04-30T17:09:23.363Z,27.52
2019-04-30T17:12:08.619Z,26.40
2019-04-30T17:14:38.869Z,26.12
2019-04-30T17:17:07.943Z,28.62
2019-04-30T17:19:39.240Z,26.85
2019-04-30T17:22:07.960Z,26.33
2019-04-30T17:24:39.446Z,27.27
2019-04-30T17:27:17.173Z,27.15
2019-04-30T17:29:41.641Z,26.50
2019-04-30T17:32:10.769Z,26.25
2019-04-30T17:34:39.451Z,27.80
2019-04-30T17:37:09.139Z,27.82
2019-04-30T17:39:40.844Z,28.38
2019-04-30T17:42:08.968Z,30.73
2019-04-30T17:44:39.728Z,33.48
2019-04-30T17:47:09.136Z,33.23
2019-04-30T17:49:38.090Z,34.20
2019-04-30T17:52:08.834Z,29.02
2019-04-30T17:54:37.995Z,29.63
2019-04-30T17:57:10.458Z,30.15
2019-04-30T18:02:09.639Z,31.93
2019-04-30T18:04:38.406Z,32.28
2019-04-30T18:07:07.265Z,32.50
2019-04-30T18:09:36.333Z,36.00
2019-04-30T18:12:05.106Z,31.82
2019-04-30T18:14:33.822Z,33.18
2019-04-30T18:17:02.794Z,33.20
2019-04-30T18:19:43.289Z,34.20
2019-04-30T18:22:32.404Z,34.50
2019-04-30T18:25:10.644Z,38.75
2019-04-30T18:27:46.438Z,33.28
2019-04-30T18:30:19.000Z,32.25
2019-04-30T18:32:48.790Z,35.30
2019-04-30T18:35:20.070Z,34.53
2019-04-30T18:37:48.909Z,35.30
2019-04-30T18:40:18.682Z,35.43
2019-04-30T18:42:49.434Z,36.17
2019-04-30T18:45:19.435Z,32.58
2019-04-30T18:47:48.222Z,38.30
2019-04-30T18:50:17.454Z,38.73
2019-04-30T18:52:50.353Z,36.17
2019-04-30T18:55:19.279Z,34.30
2019-04-30T18:57:56.487Z,35.50
2019-04-30T19:00:29.432Z,32.63
2019-04-30T19:02:58.642Z,36.75
2019-04-30T19:05:30.899Z,37.13
2019-04-30T19:08:04.677Z,37.65
2019-04-30T19:10:55.519Z,36.45
2019-04-30T19:13:52.183Z,33.40
2019-04-30T19:16:46.301Z,34.78
2019-04-30T19:19:23.671Z,33.45
2019-04-30T19:21:52.457Z,35.45
2019-04-30T19:24:21.143Z,33.42
2019-04-30T19:26:49.934Z,35.52
2019-04-30T19:29:19.043Z,37.70
2019-04-30T19:31:49.443Z,36.33
2019-04-30T19:34:18.195Z,36.80
2019-04-30T19:36:49.123Z,35.92
2019-04-30T19:39:19.535Z,32.00
2019-04-30T19:41:49.067Z,34.35
2019-04-30T19:44:20.667Z,34.35
2019-04-30T19:46:48.816Z,31.70
2019-04-30T19:49:19.207Z,34.35
2019-04-30T19:51:49.531Z,34.00
2019-04-30T19:54:19.318Z,35.83
2019-04-30T19:56:50.161Z,35.23
2019-04-30T19:59:19.401Z,37.10
2019-04-30T20:01:50.283Z,37.13
2019-04-30T20:04:19.017Z,35.35
2019-04-30T20:06:48.751Z,34.30
2019-04-30T20:09:19.430Z,33.78
2019-04-30T20:11:49.299Z,40.67
2019-04-30T20:14:18.663Z,36.80
2019-04-30T20:16:48.710Z,36.45
2019-04-30T20:19:17.559Z,36.38
2019-04-30T20:21:53.003Z,34.45
2019-04-30T20:24:19.052Z,31.27
2019-04-30T20:26:48.781Z,34.08
2019-04-30T20:29:18.740Z,33.70
2019-04-30T20:31:48.762Z,29.52
2019-04-30T20:34:19.217Z,28.38
2019-04-30T20:36:48.168Z,27.25
2019-04-30T20:39:24.014Z,25.12
2019-04-30T20:41:53.741Z,24.02
2019-04-30T20:44:22.874Z,24.05
2019-04-30T20:46:51.580Z,22.40
2019-04-30T20:49:20.277Z,23.07
2019-04-30T20:51:55.297Z,22.13
2019-04-30T20:54:21.597Z,21.20
2019-04-30T20:56:51.032Z,23.90
2019-04-30T20:59:19.873Z,24.07
2019-04-30T21:01:49.006Z,30.12
2019-04-30T21:04:20.943Z,22.10
2019-04-30T21:09:18.541Z,25.70
2019-04-30T21:11:48.973Z,23.32
2019-04-30T21:14:19.165Z,20.68
2019-04-30T21:16:48.190Z,21.95
2019-04-30T21:19:16.893Z,24.67
2019-04-30T21:21:45.559Z,20.90
2019-04-30T21:24:14.698Z,24.77
2019-04-30T21:26:43.487Z,22.22
2019-04-30T21:29:15.642Z,21.27
2019-04-30T21:32:03.928Z,23.47
2019-04-30T21:34:51.655Z,21.90
2019-04-30T21:37:20.343Z,22.00
2019-04-30T21:39:50.135Z,18.27
2019-04-30T21:42:18.934Z,18.12
2019-04-30T21:44:47.631Z,17.55
2019-04-30T21:47:16.310Z,19.23
2019-04-30T21:49:45.003Z,18.35
2019-04-30T21:52:13.914Z,18.37
2019-04-30T21:54:42.630Z,23.32
2019-04-30T21:57:11.477Z,19.98
2019-04-30T21:59:40.422Z,20.35
2019-04-30T22:02:09.894Z,19.80
2019-04-30T22:04:38.828Z,18.73
2019-04-30T22:07:09.359Z,18.55
2019-04-30T22:09:38.401Z,24.70
2019-04-30T22:12:09.078Z,19.35
2019-04-30T22:14:37.609Z,19.60
2019-04-30T22:17:06.689Z,19.98
2019-04-30T22:19:38.410Z,21.42
2019-04-30T22:22:09.263Z,22.85
2019-04-30T22:24:38.841Z,22.32
2019-04-30T22:27:07.562Z,22.58
2019-04-30T22:29:41.747Z,37.70
2019-04-30T22:32:06.989Z,23.70
2019-04-30T22:34:35.992Z,31.27
2019-04-30T22:37:04.964Z,31.30
2019-04-30T22:39:39.546Z,24.70
2019-04-30T22:42:30.023Z,24.50
2019-04-30T22:44:58.961Z,26.02
2019-04-30T22:47:28.203Z,25.65
2019-04-30T22:49:56.900Z,24.98
2019-04-30T22:52:25.688Z,27.35
2019-04-30T22:54:54.395Z,28.20
2019-04-30T22:57:23.084Z,32.28
2019-04-30T22:59:52.046Z,31.17
2019-04-30T23:02:49.124Z,27.82
2019-04-30T23:05:18.765Z,28.65
2019-04-30T23:07:47.566Z,28.95
2019-04-30T23:10:18.072Z,28.23
2019-04-30T23:12:49.006Z,30.32
2019-04-30T23:15:19.147Z,33.17
2019-04-30T23:17:49.336Z,32.20
2019-04-30T23:20:19.461Z,32.20
2019-04-30T23:22:48.562Z,38.98
2019-04-30T23:25:17.559Z,35.52
2019-04-30T23:27:46.488Z,34.67
2019-04-30T23:30:15.337Z,37.58
2019-04-30T23:32:44.432Z,40.50
2019-04-30T23:35:13.461Z,38.35
2019-04-30T23:37:42.723Z,39.67
2019-04-30T23:40:27.261Z,39.58
2019-04-30T23:42:56.669Z,40.63
2019-04-30T23:45:25.880Z,46.48
2019-04-30T23:47:54.870Z,45.12
2019-04-30T23:50:23.708Z,52.88
2019-04-30T23:52:52.479Z,49.13
2019-04-30T23:55:21.520Z,47.35
2019-04-30T23:57:50.512Z,51.90
